createdAt,value
2022-11-23T00:01:18.987Z,99376.31
2022-11-23T00:03:49.431Z,99372.13
2022-11-23T00:06:18.767Z,99374.50
2022-11-23T00:08:46.940Z,99370.22
2022-11-23T00:11:17.373Z,99371.56
2022-11-23T00:13:47.322Z,99378.56
2022-11-23T00:16:17.729Z,99382.88
2022-11-23T00:18:47.013Z,99382.75
2022-11-23T00:21:17.384Z,99384.88
2022-11-23T00:23:46.073Z,99388.38
2022-11-23T00:26:14.920Z,99386.47
2022-11-23T00:28:43.383Z,99383.53
2022-11-23T00:31:14.719Z,99403.38
2022-11-23T00:33:45.356Z,99395.59
2022-11-23T00:36:15.527Z,99397.50
2022-11-23T00:38:45.306Z,99406.06
2022-11-23T00:41:15.275Z,99406.88
2022-11-23T00:43:45.765Z,99400.00
2022-11-23T00:46:18.059Z,99401.13
2022-11-23T00:48:47.179Z,99407.69
2022-11-23T00:51:16.975Z,99405.75
2022-11-23T00:53:45.494Z,99418.53
2022-11-23T00:56:13.710Z,99410.84
2022-11-23T00:58:41.630Z,99405.06
2022-11-23T01:01:14.742Z,99419.84
2022-11-23T01:03:46.469Z,99423.69
2022-11-23T01:06:16.827Z,99419.84
2022-11-23T01:08:49.399Z,99422.56
2022-11-23T01:11:17.218Z,99423.69
2022-11-23T01:13:45.502Z,99415.56
2022-11-23T01:16:23.458Z,99428.75
2022-11-23T01:18:55.140Z,99431.03
2022-11-23T01:21:23.373Z,99424.94
2022-11-23T01:23:53.815Z,99438.81
2022-11-23T01:26:22.018Z,99434.06
2022-11-23T01:28:50.547Z,99438.00
2022-11-23T01:31:21.056Z,99444.69
2022-11-23T01:33:49.800Z,99448.19
2022-11-23T01:36:21.464Z,99446.72
2022-11-23T01:38:49.917Z,99442.88
2022-11-23T01:41:20.659Z,99444.44
2022-11-23T01:43:49.212Z,99432.03
2022-11-23T01:46:18.612Z,99438.59
2022-11-23T01:48:50.393Z,99438.34
2022-11-23T01:51:24.588Z,99433.59
2022-11-23T01:53:57.777Z,99433.16
2022-11-23T01:56:30.571Z,99429.44
2022-11-23T01:59:03.515Z,99432.59
2022-11-23T02:01:31.771Z,99441.16
2022-11-23T02:04:01.968Z,99441.94
2022-11-23T02:06:32.443Z,99444.00
2022-11-23T02:09:01.854Z,99457.53
2022-11-23T02:11:30.088Z,99461.38
2022-11-23T02:13:58.200Z,99459.13
2022-11-23T02:16:26.301Z,99455.19
2022-11-23T02:18:54.799Z,99465.66
2022-11-23T02:21:23.551Z,99459.13
2022-11-23T02:24:05.258Z,99470.31
2022-11-23T02:26:37.299Z,99467.13
2022-11-23T02:29:14.783Z,99474.94
2022-11-23T02:31:43.041Z,99471.09
2022-11-23T02:34:11.259Z,99468.03
2022-11-23T02:36:41.672Z,99468.72
2022-11-23T02:39:13.399Z,99472.66
2022-11-23T02:41:45.317Z,99471.31
2022-11-23T02:44:35.113Z,99478.31
2022-11-23T02:47:05.203Z,99474.25
2022-11-23T02:49:34.803Z,99469.94
2022-11-23T02:52:03.733Z,99468.38
2022-11-23T02:54:32.223Z,99465.66
2022-11-23T02:57:04.768Z,99466.78
2022-11-23T02:59:34.435Z,99468.69
2022-11-23T03:02:04.640Z,99469.81
2022-11-23T03:04:33.262Z,99476.50
2022-11-23T03:07:01.216Z,99472.97
2022-11-23T03:09:29.731Z,99473.81
2022-11-23T03:11:57.750Z,99479.22
2022-11-23T03:14:27.100Z,99481.59
2022-11-23T03:16:54.924Z,99490.06
2022-11-23T03:19:22.849Z,99484.63
2022-11-23T03:21:50.933Z,99487.78
2022-11-23T03:24:18.994Z,99484.63
2022-11-23T03:26:46.896Z,99487.09
2022-11-23T03:29:15.123Z,99491.72
2022-11-23T03:31:44.363Z,99493.44
2022-11-23T03:34:13.134Z,99498.84
2022-11-23T03:36:40.977Z,99495.69
2022-11-23T03:39:10.163Z,99496.34
2022-11-23T03:41:39.260Z,99487.78
2022-11-23T03:44:08.962Z,99501.78
2022-11-23T03:46:36.982Z,99492.78
2022-11-23T03:49:07.935Z,99495.00
2022-11-23T03:51:35.768Z,99490.06
2022-11-23T03:54:08.649Z,99492.78
2022-11-23T03:56:36.713Z,99489.16
2022-11-23T03:59:04.672Z,99493.66
2022-11-23T04:01:32.620Z,99497.63
2022-11-23T04:04:00.447Z,99487.13
2022-11-23T04:06:30.801Z,99486.66
2022-11-23T04:09:02.466Z,99490.06
2022-11-23T04:11:30.671Z,99487.44
2022-11-23T04:14:00.111Z,99497.72
2022-11-23T04:16:28.035Z,99493.22
2022-11-23T04:18:55.877Z,99490.94
2022-11-23T04:21:24.327Z,99501.78
2022-11-23T04:23:53.965Z,99493.22
2022-11-23T04:26:22.136Z,99500.91
2022-11-23T04:28:50.751Z,99497.72
2022-11-23T04:31:19.159Z,99496.13
2022-11-23T04:33:47.203Z,99500.44
2022-11-23T04:36:15.106Z,99502.00
2022-11-23T04:38:42.960Z,99499.28
2022-11-23T04:41:12.356Z,99494.56
2022-11-23T04:43:40.363Z,99498.06
2022-11-23T04:46:08.338Z,99507.66
2022-11-23T04:48:36.214Z,99507.66
2022-11-23T04:51:04.430Z,99508.47
2022-11-23T04:53:32.541Z,99510.81
2022-11-23T04:56:00.514Z,99507.66
2022-11-23T04:58:33.140Z,99510.13
2022-11-23T05:01:02.480Z,99509.81
2022-11-23T05:03:33.471Z,99504.06
2022-11-23T05:06:01.504Z,99503.25
2022-11-23T05:08:30.022Z,99494.00
2022-11-23T05:10:58.077Z,99502.34
2022-11-23T05:13:26.990Z,99509.03
2022-11-23T05:15:56.193Z,99504.28
2022-11-23T05:18:25.277Z,99509.25
2022-11-23T05:20:53.423Z,99500.69
2022-11-23T05:23:21.326Z,99501.34
2022-11-23T05:25:50.464Z,99504.03
2022-11-23T05:31:13.015Z,99506.75
2022-11-23T05:33:41.862Z,99501.69
2022-11-23T05:36:13.832Z,99502.91
2022-11-23T05:38:42.210Z,99503.69
2022-11-23T05:41:12.676Z,99508.47
2022-11-23T05:43:40.669Z,99508.56
2022-11-23T05:46:12.145Z,99509.47
2022-11-23T05:48:40.014Z,99502.47
2022-11-23T05:51:08.194Z,99514.09
2022-11-23T05:53:36.028Z,99512.84
2022-11-23T05:56:04.340Z,99512.84
2022-11-23T05:58:32.144Z,99517.81
2022-11-23T06:01:01.080Z,99514.66
2022-11-23T06:03:30.460Z,99517.59
2022-11-23T06:05:58.289Z,99518.28
2022-11-23T06:08:26.194Z,99523.69
2022-11-23T06:10:54.010Z,99521.00
2022-11-23T06:13:22.031Z,99518.28
2022-11-23T06:15:49.980Z,99524.34
2022-11-23T06:18:17.829Z,99527.75
2022-11-23T06:20:47.334Z,99526.19
2022-11-23T06:23:15.673Z,99524.25
2022-11-23T06:25:43.475Z,99522.78
2022-11-23T06:28:11.402Z,99524.34
2022-11-23T06:30:39.570Z,99528.19
2022-11-23T06:33:07.505Z,99524.34
2022-11-23T06:35:35.563Z,99524.34
2022-11-23T06:38:05.156Z,99517.38
2022-11-23T06:40:33.106Z,99525.16
2022-11-23T06:43:01.190Z,99520.06
2022-11-23T06:45:29.362Z,99519.63
2022-11-23T06:47:57.573Z,99521.22
2022-11-23T06:50:25.582Z,99528.88
2022-11-23T06:52:57.426Z,99534.63
2022-11-23T06:55:27.385Z,99536.53
2022-11-23T06:57:55.342Z,99539.59
2022-11-23T07:00:23.514Z,99541.72
2022-11-23T07:02:55.521Z,99539.50
2022-11-23T07:05:24.205Z,99545.56
2022-11-23T07:07:52.317Z,99547.16
2022-11-23T07:10:21.322Z,99556.88
2022-11-23T07:12:50.587Z,99553.69
2022-11-23T07:15:18.673Z,99547.63
2022-11-23T07:17:46.686Z,99544.22
2022-11-23T07:20:15.115Z,99548.50
2022-11-23T07:22:42.983Z,99543.44
2022-11-23T07:25:11.578Z,99542.66
2022-11-23T07:27:39.784Z,99549.31
2022-11-23T07:30:11.068Z,99548.06
2022-11-23T07:32:39.279Z,99551.91
2022-11-23T07:35:07.789Z,99557.31
2022-11-23T07:37:35.945Z,99555.75
2022-11-23T07:40:04.044Z,99555.75
2022-11-23T07:42:35.532Z,99574.22
2022-11-23T07:45:10.684Z,99568.81
2022-11-23T07:47:38.513Z,99562.59
2022-11-23T07:50:08.154Z,99572.00
2022-11-23T07:52:37.024Z,99577.41
2022-11-23T07:55:06.557Z,99579.09
2022-11-23T07:57:34.472Z,99575.38
2022-11-23T08:00:02.645Z,99573.13
2022-11-23T08:02:32.209Z,99570.41
2022-11-23T08:05:00.108Z,99572.47
2022-11-23T08:07:28.125Z,99570.56
2022-11-23T08:09:56.057Z,99570.88
2022-11-23T08:12:24.068Z,99583.63
2022-11-23T08:14:51.874Z,99584.66
2022-11-23T08:17:19.926Z,99582.38
2022-11-23T08:19:49.306Z,99581.72
2022-11-23T08:22:17.518Z,99584.75
2022-11-23T08:24:45.538Z,99594.59
2022-11-23T08:27:13.638Z,99586.91
2022-11-23T08:29:41.844Z,99591.97
2022-11-23T08:32:09.959Z,99592.13
2022-11-23T08:34:37.800Z,99597.97
2022-11-23T08:37:07.229Z,99600.81
2022-11-23T08:39:35.061Z,99603.19
2022-11-23T08:42:02.910Z,99610.88
2022-11-23T08:44:31.306Z,99604.22
2022-11-23T08:46:59.873Z,99611.34
2022-11-23T08:49:27.659Z,99601.28
2022-11-23T08:51:55.746Z,99592.91
2022-11-23T08:54:25.384Z,99601.03
2022-11-23T08:56:53.485Z,99598.47
2022-11-23T08:59:21.694Z,99594.63
2022-11-23T09:01:49.655Z,99595.78
2022-11-23T09:04:20.649Z,99603.91
2022-11-23T09:06:49.049Z,99600.50
2022-11-23T09:09:16.843Z,99590.44
2022-11-23T09:11:46.635Z,99597.13
2022-11-23T09:14:14.753Z,99603.34
2022-11-23T09:16:42.856Z,99609.56
2022-11-23T09:19:14.089Z,99614.28
2022-11-23T09:21:43.056Z,99612.03
2022-11-23T09:24:11.674Z,99607.06
2022-11-23T09:26:39.543Z,99613.06
2022-11-23T09:29:09.977Z,99611.22
2022-11-23T09:31:37.987Z,99616.00
2022-11-23T09:34:06.121Z,99621.41
2022-11-23T09:36:33.941Z,99629.66
2022-11-23T09:39:01.739Z,99620.38
2022-11-23T09:41:55.766Z,99619.13
2022-11-23T09:44:36.976Z,99625.78
2022-11-23T09:47:22.305Z,99617.34
2022-11-23T09:49:59.856Z,99625.91
2022-11-23T09:52:27.868Z,99622.16
2022-11-23T09:54:58.602Z,99617.56
2022-11-23T09:57:31.547Z,99623.78
2022-11-23T10:00:05.550Z,99630.06
2022-11-23T10:02:37.898Z,99630.06
2022-11-23T10:05:07.391Z,99621.59
2022-11-23T10:07:47.561Z,99623.06
2022-11-23T10:10:29.601Z,99601.81
2022-11-23T10:13:07.046Z,99618.56
2022-11-23T10:15:43.704Z,99626.00
2022-11-23T10:18:28.623Z,99619.34
2022-11-23T10:21:05.410Z,99618.66
2022-11-23T10:23:52.165Z,99617.06
2022-11-23T10:26:21.810Z,99625.00
2022-11-23T10:28:51.889Z,99620.34
2022-11-23T10:31:23.155Z,99607.00
2022-11-23T10:33:57.052Z,99620.56
2022-11-23T10:36:24.920Z,99617.97
2022-11-23T10:38:56.827Z,99615.72
2022-11-23T10:41:24.813Z,99609.59
2022-11-23T10:43:57.622Z,99608.44
2022-11-23T10:46:41.376Z,99598.72
2022-11-23T10:49:18.055Z,99588.66
2022-11-23T10:51:52.628Z,99586.41
2022-11-23T10:54:24.786Z,99578.72
2022-11-23T10:56:54.024Z,99576.44
2022-11-23T10:59:34.688Z,99583.44
2022-11-23T11:02:16.701Z,99566.72
2022-11-23T11:04:45.240Z,99578.81
2022-11-23T11:07:26.295Z,99566.28
2022-11-23T11:09:57.165Z,99567.50
2022-11-23T11:12:27.906Z,99552.00
2022-11-23T11:15:10.915Z,99564.00
2022-11-23T11:17:42.265Z,99558.16
2022-11-23T11:20:32.461Z,99551.38
2022-11-23T11:23:02.578Z,99546.81
2022-11-23T11:25:33.424Z,99543.00
2022-11-23T11:28:01.549Z,99540.59
2022-11-23T11:30:40.672Z,99533.72
2022-11-23T11:33:16.154Z,99529.31
2022-11-23T11:35:47.182Z,99533.25
2022-11-23T11:38:21.135Z,99533.25
2022-11-23T11:40:52.272Z,99526.00
2022-11-23T11:43:32.395Z,99526.44
2022-11-23T11:49:07.669Z,99530.31
2022-11-23T11:51:39.385Z,99525.31
2022-11-23T11:54:19.728Z,99525.59
2022-11-23T11:56:51.653Z,99520.94
2022-11-23T11:59:26.826Z,99526.72
2022-11-23T12:02:01.624Z,99519.50
2022-11-23T12:04:38.755Z,99527.19
2022-11-23T12:07:14.593Z,99527.19
2022-11-23T12:09:45.916Z,99524.91
2022-11-23T12:12:17.530Z,99513.81
2022-11-23T12:14:47.084Z,99508.84
2022-11-23T12:17:34.484Z,99518.22
2022-11-23T12:20:13.278Z,99513.78
2022-11-23T12:22:54.609Z,99517.03
2022-11-23T12:25:33.240Z,99519.16
2022-11-23T12:28:16.521Z,99516.53
2022-11-23T12:30:57.043Z,99518.91
2022-11-23T12:33:46.007Z,99518.47
2022-11-23T12:36:30.059Z,99525.72
2022-11-23T12:39:11.136Z,99521.41
2022-11-23T12:41:44.911Z,99516.88
2022-11-23T12:44:49.609Z,99509.41
2022-11-23T12:47:27.496Z,99504.88
2022-11-23T12:50:00.898Z,99490.16
2022-11-23T12:52:48.518Z,99490.16
2022-11-23T12:55:25.171Z,99493.00
2022-11-23T12:58:01.576Z,99494.91
2022-11-23T13:00:35.719Z,99487.66
2022-11-23T13:03:34.426Z,99481.78
2022-11-23T13:06:34.651Z,99487.66
2022-11-23T13:09:20.597Z,99478.72
2022-11-23T13:12:00.663Z,99460.25
2022-11-23T13:14:35.792Z,99466.81
2022-11-23T13:17:19.424Z,99456.31
2022-11-23T13:20:09.061Z,99467.06
2022-11-23T13:22:39.369Z,99462.53
2022-11-23T13:25:23.641Z,99464.69
2022-11-23T13:28:03.073Z,99448.31
2022-11-23T13:33:37.765Z,99457.16
2022-11-23T13:36:12.481Z,99456.44
2022-11-23T13:38:44.011Z,99457.59
2022-11-23T13:41:57.610Z,99456.63
2022-11-23T13:44:32.728Z,99455.84
2022-11-23T13:47:03.597Z,99458.13
2022-11-23T13:49:34.752Z,99461.19
2022-11-23T13:52:20.855Z,99451.13
2022-11-23T13:54:57.016Z,99458.91
2022-11-23T13:57:25.054Z,99455.13
2022-11-23T13:59:54.406Z,99465.97
2022-11-23T14:02:28.515Z,99461.25
2022-11-23T14:05:29.591Z,99465.38
2022-11-23T14:07:59.535Z,99449.97
2022-11-23T14:10:32.552Z,99447.94
2022-11-23T14:13:05.748Z,99450.94
2022-11-23T14:15:38.829Z,99446.88
2022-11-23T14:18:37.276Z,99445.97
2022-11-23T14:21:17.216Z,99458.69
2022-11-23T14:24:05.540Z,99454.03
2022-11-23T14:26:40.186Z,99460.25
2022-11-23T14:29:24.171Z,99458.56
2022-11-23T14:32:20.735Z,99453.06
2022-11-23T14:34:58.498Z,99456.56
2022-11-23T14:37:37.782Z,99450.34
2022-11-23T14:40:14.109Z,99451.22
2022-11-23T14:42:45.879Z,99449.75
2022-11-23T14:45:16.215Z,99459.13
2022-11-23T14:47:45.441Z,99458.22
2022-11-23T14:50:23.214Z,99455.00
2022-11-23T14:52:53.016Z,99458.13
2022-11-23T14:55:23.359Z,99460.06
2022-11-23T14:57:55.327Z,99460.41
2022-11-23T15:00:30.829Z,99475.09
2022-11-23T15:03:34.053Z,99472.72
2022-11-23T15:05:59.942Z,99489.34
2022-11-23T15:08:31.928Z,99498.28
2022-11-23T15:11:04.259Z,99500.56
2022-11-23T15:13:44.676Z,99503.16
2022-11-23T15:16:14.144Z,99507.56
2022-11-23T15:18:44.550Z,99505.19
2022-11-23T15:21:26.523Z,99499.41
2022-11-23T15:23:57.392Z,99514.69
2022-11-23T15:26:47.269Z,99523.34
2022-11-23T15:29:30.830Z,99519.06
2022-11-23T15:34:49.099Z,99532.63
2022-11-23T15:37:18.694Z,99537.25
2022-11-23T15:39:47.705Z,99542.59
2022-11-23T15:42:18.763Z,99545.63
2022-11-23T15:44:51.153Z,99549.81
2022-11-23T15:47:27.400Z,99546.69
2022-11-23T15:50:10.446Z,99551.53
2022-11-23T15:52:38.885Z,99563.19
2022-11-23T15:55:10.060Z,99571.31
2022-11-23T15:57:40.097Z,99574.72
2022-11-23T16:00:10.629Z,99584.31
2022-11-23T16:02:38.500Z,99583.09
2022-11-23T16:05:15.072Z,99593.03
2022-11-23T16:07:59.497Z,99609.31
2022-11-23T16:10:28.895Z,99610.09
2022-11-23T16:12:57.964Z,99615.19
2022-11-23T16:15:41.395Z,99612.34
2022-11-23T16:18:22.730Z,99623.91
2022-11-23T16:20:56.605Z,99626.97
2022-11-23T16:23:31.013Z,99618.25
2022-11-23T16:26:01.479Z,99627.53
2022-11-23T16:28:32.090Z,99631.25
2022-11-23T16:31:01.069Z,99636.44
2022-11-23T16:33:30.457Z,99639.50
2022-11-23T16:36:01.204Z,99656.28
2022-11-23T16:38:29.042Z,99652.19
2022-11-23T16:40:57.250Z,99657.63
2022-11-23T16:43:25.705Z,99665.75
2022-11-23T16:45:53.662Z,99666.66
2022-11-23T16:48:40.134Z,99670.69
2022-11-23T16:51:14.324Z,99663.50
2022-11-23T16:54:11.955Z,99661.34
2022-11-23T16:56:32.926Z,99655.59
2022-11-23T16:59:01.133Z,99664.53
2022-11-23T17:01:31.663Z,99667.00
2022-11-23T17:04:00.128Z,99669.25
2022-11-23T17:06:32.138Z,99666.75
2022-11-23T17:09:06.375Z,99669.81
2022-11-23T17:11:39.016Z,99676.22
2022-11-23T17:14:07.405Z,99685.19
2022-11-23T17:16:35.587Z,99685.81
2022-11-23T17:19:03.761Z,99675.00
2022-11-23T17:21:32.993Z,99647.44
2022-11-23T17:24:01.321Z,99649.38
2022-11-23T17:26:35.968Z,99676.31
2022-11-23T17:29:06.484Z,99679.03
2022-11-23T17:31:34.719Z,99696.09
2022-11-23T17:34:02.678Z,99693.38
2022-11-23T17:36:32.957Z,99688.75
2022-11-23T17:39:00.863Z,99713.47
2022-11-23T17:41:28.775Z,99712.94
2022-11-23T17:43:58.558Z,99727.72
2022-11-23T17:46:28.019Z,99719.03
2022-11-23T17:48:58.003Z,99729.88
2022-11-23T17:51:28.242Z,99728.28
2022-11-23T17:53:57.466Z,99731.19
2022-11-23T17:56:26.726Z,99736.63
2022-11-23T17:58:54.976Z,99732.63
2022-11-23T18:01:24.070Z,99721.00
2022-11-23T18:03:52.317Z,99720.34
2022-11-23T18:06:23.086Z,99732.78
2022-11-23T18:08:52.007Z,99731.06
2022-11-23T18:11:25.457Z,99731.59
2022-11-23T18:13:54.330Z,99735.44
2022-11-23T18:16:23.643Z,99744.69
2022-11-23T18:18:52.073Z,99739.28
2022-11-23T18:21:20.096Z,99741.38
2022-11-23T18:23:48.332Z,99737.69
2022-11-23T18:26:19.504Z,99752.63
2022-11-23T18:28:49.286Z,99747.19
2022-11-23T18:31:17.810Z,99754.19
2022-11-23T18:33:46.044Z,99756.47
2022-11-23T18:36:14.631Z,99757.78
2022-11-23T18:38:44.817Z,99758.13
2022-11-23T18:41:13.366Z,99759.22
2022-11-23T18:43:41.404Z,99773.59
2022-11-23T18:46:11.574Z,99776.94
2022-11-23T18:48:39.587Z,99783.66
2022-11-23T18:51:16.137Z,99781.91
2022-11-23T18:53:47.341Z,99775.22
2022-11-23T18:56:15.529Z,99778.25
2022-11-23T18:58:45.101Z,99793.88
2022-11-23T19:01:17.762Z,99803.56
2022-11-23T19:03:47.083Z,99808.31
2022-11-23T19:06:16.429Z,99812.06
2022-11-23T19:08:45.922Z,99831.03
2022-11-23T19:11:18.102Z,99813.72
2022-11-23T19:13:47.208Z,99815.66
2022-11-23T19:16:21.348Z,99832.69
2022-11-23T19:18:53.928Z,99831.56
2022-11-23T19:21:24.340Z,99822.38
2022-11-23T19:23:54.226Z,99822.25
2022-11-23T19:26:22.698Z,99820.69
2022-11-23T19:28:51.368Z,99817.03
2022-11-23T19:31:22.991Z,99820.53
2022-11-23T19:33:52.542Z,99829.00
2022-11-23T19:36:22.832Z,99829.94
2022-11-23T19:38:52.478Z,99831.50
2022-11-23T19:41:25.345Z,99841.69
2022-11-23T19:43:59.286Z,99853.31
2022-11-23T19:46:29.557Z,99848.56
2022-11-23T19:48:58.715Z,99840.09
2022-11-23T19:51:28.343Z,99853.63
2022-11-23T19:53:58.135Z,99860.31
2022-11-23T19:56:28.992Z,99867.31
2022-11-23T19:58:58.498Z,99871.94
2022-11-23T20:01:29.190Z,99868.13
2022-11-23T20:03:58.134Z,99872.13
2022-11-23T20:06:28.032Z,99874.34
2022-11-23T20:08:56.672Z,99872.31
2022-11-23T20:11:25.604Z,99873.78
2022-11-23T20:13:54.506Z,99888.41
2022-11-23T20:16:23.808Z,99887.63
2022-11-23T20:18:59.005Z,99901.50
2022-11-23T20:21:28.157Z,99897.19
2022-11-23T20:24:04.048Z,99891.97
2022-11-23T20:26:33.578Z,99898.84
2022-11-23T20:29:01.950Z,99899.63
2022-11-23T20:31:31.850Z,99908.09
2022-11-23T20:34:03.289Z,99909.66
2022-11-23T20:36:35.842Z,99902.16
2022-11-23T20:39:06.465Z,99905.00
2022-11-23T20:41:36.215Z,99906.44
2022-11-23T20:44:06.323Z,99905.84
2022-11-23T20:49:24.641Z,99915.75
2022-11-23T20:51:52.980Z,99917.69
2022-11-23T20:54:20.812Z,99919.13
2022-11-23T20:56:48.886Z,99922.16
2022-11-23T20:59:17.244Z,99929.00
2022-11-23T21:01:45.518Z,99931.72
2022-11-23T21:04:14.545Z,99934.75
2022-11-23T21:06:44.207Z,99930.47
2022-11-23T21:09:12.244Z,99935.41
2022-11-23T21:11:57.293Z,99932.53
2022-11-23T21:14:27.916Z,99942.56
2022-11-23T21:16:58.875Z,99940.19
2022-11-23T21:19:28.817Z,99934.00
2022-11-23T21:21:59.401Z,99950.38
2022-11-23T21:24:27.339Z,99952.78
2022-11-23T21:26:55.465Z,99957.69
2022-11-23T21:29:23.836Z,99964.88
2022-11-23T21:31:52.149Z,99971.41
2022-11-23T21:34:22.234Z,99969.00
2022-11-23T21:36:50.825Z,99968.53
2022-11-23T21:39:20.245Z,99976.03
2022-11-23T21:41:50.603Z,99967.59
2022-11-23T21:44:20.399Z,99965.22
2022-11-23T21:46:48.570Z,99969.69
2022-11-23T21:49:16.533Z,99975.91
2022-11-23T21:51:45.710Z,99983.69
2022-11-23T21:54:16.143Z,99983.69
2022-11-23T21:56:47.111Z,99982.88
2022-11-23T21:59:15.502Z,99987.97
2022-11-23T22:01:43.676Z,99993.84
2022-11-23T22:04:13.441Z,99995.13
2022-11-23T22:06:42.255Z,99994.63
2022-11-23T22:09:11.425Z,100005.16
2022-11-23T22:11:41.634Z,100006.28
2022-11-23T22:14:12.950Z,100014.41
2022-11-23T22:16:42.764Z,100017.91
2022-11-23T22:19:12.890Z,100020.13
2022-11-23T22:21:42.638Z,100032.38
2022-11-23T22:24:13.818Z,100030.81
2022-11-23T22:26:42.114Z,100036.69
2022-11-23T22:29:11.769Z,100029.53
2022-11-23T22:31:40.075Z,100041.00
2022-11-23T22:34:11.416Z,100034.63
2022-11-23T22:36:39.573Z,100033.50
2022-11-23T22:39:08.236Z,100034.63
2022-11-23T22:41:37.920Z,100039.41
2022-11-23T22:44:07.892Z,100048.13
2022-11-23T22:46:37.870Z,100055.78
2022-11-23T22:49:06.564Z,100061.38
2022-11-23T22:51:34.671Z,100064.22
2022-11-23T22:54:03.412Z,100063.88
2022-11-23T22:56:32.267Z,100067.09
2022-11-23T22:59:00.548Z,100069.47
2022-11-23T23:01:30.547Z,100067.25
2022-11-23T23:04:01.960Z,100066.44
2022-11-23T23:06:33.575Z,100076.63
2022-11-23T23:09:02.841Z,100079.03
2022-11-23T23:11:32.013Z,100084.13
2022-11-23T23:14:00.839Z,100092.72
2022-11-23T23:16:30.091Z,100096.22
2022-11-23T23:19:01.615Z,100095.09
2022-11-23T23:21:30.470Z,100099.38
2022-11-23T23:24:01.515Z,100095.09
2022-11-23T23:26:30.800Z,100096.69
2022-11-23T23:29:00.338Z,100103.69
2022-11-23T23:31:29.869Z,100101.47
2022-11-23T23:34:00.723Z,100105.28
2022-11-23T23:36:29.561Z,100112.28
2022-11-23T23:38:57.890Z,100109.59
2022-11-23T23:41:25.935Z,100112.13
2022-11-23T23:43:53.777Z,100124.38
2022-11-23T23:46:21.666Z,100118.19
2022-11-23T23:48:49.541Z,100120.56
2022-11-23T23:51:20.971Z,100116.25
2022-11-23T23:53:50.912Z,100114.34
2022-11-23T23:56:21.048Z,100118.19
2022-11-23T23:58:48.973Z,100121.22
